Cavalier, ND

2:10 PM CDT on September 19, 2014 (GMT -0500)
Cavalier | Change Station
CLOSE
Current Station
Airport
Location: Cavalier,
Elevation: 892 ft
Nearby Weather Stations

Elev 892 ft 48.78 °N, 97.63 °W | Updated 15 minutes ago

Clear
Clear
75 °F
Feels Like 75 °F
N
6
Wind Variable Wind from South

Today
High -- | Low -- °F
--% Chance of Precip.
Yesterday
High -- | Low -- °F
Precip. -- in
7:12 AM 7:34 PM
Waning Crescent, 17% visible
Pressure 29.50 in
Visibility 10.0 miles
Clouds Clear
Dew Point 63 °F
Humidity 65%
Rainfall 0.00 in
Snow Depth Not available.
UV 6 out of 12
Pollen 3.60 out of 12
Air Quality Not available.
Flu Activity Not available.
METAR K2C8 191855Z AUTO 18005KT 10SM CLR 24/17 A2950 RMK AO2

More Conditions Fewer Conditions

Pressure 29.50 in
Visibility 10.0 miles
Clouds Clear
Dew Point 63 °F
Humidity 65%
Rainfall 0.00 in
Snow Depth Not available.
UV 6 out of 12
Pollen 3.60 out of 12
Air Quality Not available.
Flu Activity Not available.
METAR K2C8 191855Z AUTO 18005KT 10SM CLR 24/17 A2950 RMK AO2

More Conditions Fewer Conditions

10-Day Weather Forecast

Almanac

Astronomy

Sep. 19, 2014 Rise Set
Actual Time 7:12 AM CDT 7:34 PM CDT
Civil Twilight 6:41 AM CDT 8:06 PM CDT
Nautical Twilight 6:03 AM CDT 8:43 PM CDT
Astronomical Twilight 5:25 AM CDT 9:22 PM CDT
Moon 2:42 AM CDT 5:18 PM CDT
Length of Visible Light 13h 24m
Length of Day
12h 21m
Tomorrow will be 3m 33s shorter.
Waning Crescent, 17% of the Moon is Illuminated
Today
Waning Crescent
Sep 24
New
Oct 1
First Quarter
Oct 8
Full
Oct 15
Last Quarter

Today's Extremes

State Highs State Lows

Community

WunderPhotos

Upload Photos

1,754,685 photos uploaded!

WunderBlogs® & News

Nearby

Snow Depth

Station Depth Elevation
No new snow has been reported.

Earthquake Activity

City Distance Mag. Time & Date
No recent earthquake activity has been reported nearby.
Minimum magnitude displayed is 2.5.

Coastal Water Temperatures

Place Temperature
No Stations Reporting

Nearby Weather Stations